Aérodrome :







RETROUVEZ-NOUS SUR...

 
LOGIN :

S'inscrire | Disclaimer

   EN    FR    IT 

 









Légende :    VFR   VFR Marginal   IFR   IFR Intensif   IFR Très Intensif
Visi : 
Plafond : 
>= 8 km
>= 3000ft
5 à 8 km
1000 à 3000 ft
1500m à 5 km
500 à 1000 ft
800 à 1500m
200 à 500 ft
< 800m
< 200 ft
Symboles :   Orages  Brouillard  Fortes neiges  Fortes précipitations  Vent > 20 kt






- Altitude de l'aérodrome : 522 ft
- Code IATA : YBG


CYBG - CFB Bagotville

DERNIER METAR :
  • 190300Z 19003KT 25SM BKN070 OVC100 M21/M24 A2999 RMK AC5AC3 SLP176

METARs EXPIRÉS :
  • 190200Z 07002KT 25SM FEW080 OVC110 M21/M24 A3004 RMK AC2AC6 PRESFR SLP195
  • 190100Z 00000KT 25SM FEW080 OVC110 M22/M25 A3011 RMK AC2AC6 SLP217

TAF TAF CYBG
Valide du 19 à 00h jusqu'au 20 à 00h UTC


182330Z 1900/1924 09005KT P6SM FEW120 BKN150 OVC250
FM190400 09010KT 6SM -SN BKN060 OVC120
FM190600 09015KT 4SM -SN FEW015 OVC030
FM191300 09008KT P6SM -SN SCT015 OVC030
BECMG 1915/1917 VRB03KT
FM192100 28005KT P6SM BKN025 RMK NXT FCST BY 190600Z



MET'MAP, la Météo Aéronautique d'un coup d'oeil ! - Copyright ORBIFLY Décembre 2007 - Disclaimer

ORBIFLY MET'MAP TEAM :

Programmation & Développement : Alexandra Zaïnal
Sur une idée originale de : Baudouin d'Aumeries
Assistance à la programmation : Marc-Olivier Méhu
Soutien technique & logistique : Manuel Goepfert

Contact : metmap@orbifly.com




SOURCES & CREDITS :

   NOAA